sensor_id;sensor_type;location;lat;lon;timestamp;P1;durP1;ratioP1;P2;durP2;ratioP2
30420;SDS011;17218;54.070;10.012;2024-02-26T00:00:18;6.13;;;3.63;;
30420;SDS011;17218;54.070;10.012;2024-02-26T00:02:45;7.53;;;4.63;;
30420;SDS011;17218;54.070;10.012;2024-02-26T00:05:13;7.30;;;4.47;;
30420;SDS011;17218;54.070;10.012;2024-02-26T00:07:40;6.83;;;4.50;;
30420;SDS011;17218;54.070;10.012;2024-02-26T00:10:08;6.63;;;4.33;;
30420;SDS011;17218;54.070;10.012;2024-02-26T00:12:35;6.20;;;4.47;;
30420;SDS011;17218;54.070;10.012;2024-02-26T00:15:02;8.17;;;4.30;;
30420;SDS011;17218;54.070;10.012;2024-02-26T00:17:29;7.83;;;4.63;;
30420;SDS011;17218;54.070;10.012;2024-02-26T00:19:55;6.13;;;3.93;;
30420;SDS011;17218;54.070;10.012;2024-02-26T00:22:23;9.17;;;4.43;;
30420;SDS011;17218;54.070;10.012;2024-02-26T00:24:50;7.07;;;4.43;;
30420;SDS011;17218;54.070;10.012;2024-02-26T00:27:16;7.47;;;4.30;;
30420;SDS011;17218;54.070;10.012;2024-02-26T00:29:43;5.63;;;3.53;;
30420;SDS011;17218;54.070;10.012;2024-02-26T00:32:09;6.20;;;4.10;;
30420;SDS011;17218;54.070;10.012;2024-02-26T00:34:36;7.53;;;4.00;;
30420;SDS011;17218;54.070;10.012;2024-02-26T00:37:02;6.50;;;4.10;;
30420;SDS011;17218;54.070;10.012;2024-02-26T00:39:31;6.70;;;4.60;;
30420;SDS011;17218;54.070;10.012;2024-02-26T00:41:57;6.30;;;3.87;;
30420;SDS011;17218;54.070;10.012;2024-02-26T00:44:24;8.17;;;4.70;;
30420;SDS011;17218;54.070;10.012;2024-02-26T00:46:50;9.47;;;5.30;;
30420;SDS011;17218;54.070;10.012;2024-02-26T00:49:17;7.93;;;4.77;;
30420;SDS011;17218;54.070;10.012;2024-02-26T00:51:43;9.70;;;4.93;;
30420;SDS011;17218;54.070;10.012;2024-02-26T00:54:09;10.97;;;6.03;;
30420;SDS011;17218;54.070;10.012;2024-02-26T00:56:37;10.20;;;5.80;;
30420;SDS011;17218;54.070;10.012;2024-02-26T00:59:04;11.60;;;5.87;;
30420;SDS011;17218;54.070;10.012;2024-02-26T01:01:31;7.57;;;5.67;;
30420;SDS011;17218;54.070;10.012;2024-02-26T01:03:57;8.13;;;5.67;;
30420;SDS011;17218;54.070;10.012;2024-02-26T01:06:24;6.40;;;4.67;;
30420;SDS011;17218;54.070;10.012;2024-02-26T01:08:50;9.33;;;5.17;;
30420;SDS011;17218;54.070;10.012;2024-02-26T01:11:17;8.77;;;5.53;;
30420;SDS011;17218;54.070;10.012;2024-02-26T01:13:44;7.97;;;4.87;;
30420;SDS011;17218;54.070;10.012;2024-02-26T01:16:11;6.90;;;4.37;;
30420;SDS011;17218;54.070;10.012;2024-02-26T01:18:37;7.23;;;4.43;;
30420;SDS011;17218;54.070;10.012;2024-02-26T01:21:04;7.83;;;4.60;;
30420;SDS011;17218;54.070;10.012;2024-02-26T01:23:32;8.23;;;4.73;;
30420;SDS011;17218;54.070;10.012;2024-02-26T01:25:58;6.73;;;4.07;;
30420;SDS011;17218;54.070;10.012;2024-02-26T01:28:24;6.53;;;3.87;;
30420;SDS011;17218;54.070;10.012;2024-02-26T01:30:52;7.83;;;4.30;;
30420;SDS011;17218;54.070;10.012;2024-02-26T01:33:19;7.03;;;4.50;;
30420;SDS011;17218;54.070;10.012;2024-02-26T01:35:45;6.13;;;3.93;;
30420;SDS011;17218;54.070;10.012;2024-02-26T01:38:12;6.40;;;4.20;;
30420;SDS011;17218;54.070;10.012;2024-02-26T01:40:39;6.33;;;3.97;;
30420;SDS011;17218;54.070;10.012;2024-02-26T01:43:05;6.37;;;4.27;;
30420;SDS011;17218;54.070;10.012;2024-02-26T01:45:32;5.97;;;4.27;;
30420;SDS011;17218;54.070;10.012;2024-02-26T01:47:59;7.27;;;3.77;;
30420;SDS011;17218;54.070;10.012;2024-02-26T01:50:26;5.20;;;3.40;;
30420;SDS011;17218;54.070;10.012;2024-02-26T01:52:53;4.83;;;3.23;;
30420;SDS011;17218;54.070;10.012;2024-02-26T01:55:22;5.47;;;3.70;;
30420;SDS011;17218;54.070;10.012;2024-02-26T01:57:50;6.57;;;3.37;;
30420;SDS011;17218;54.070;10.012;2024-02-26T02:00:18;6.77;;;4.20;;
30420;SDS011;17218;54.070;10.012;2024-02-26T02:02:45;4.77;;;2.80;;
30420;SDS011;17218;54.070;10.012;2024-02-26T02:05:15;4.93;;;3.23;;
30420;SDS011;17218;54.070;10.012;2024-02-26T02:07:42;5.23;;;3.00;;
30420;SDS011;17218;54.070;10.012;2024-02-26T02:10:09;5.03;;;3.27;;
30420;SDS011;17218;54.070;10.012;2024-02-26T02:12:36;5.73;;;3.43;;
30420;SDS011;17218;54.070;10.012;2024-02-26T02:15:05;5.60;;;3.83;;
30420;SDS011;17218;54.070;10.012;2024-02-26T02:17:32;4.77;;;3.27;;
30420;SDS011;17218;54.070;10.012;2024-02-26T02:19:59;5.90;;;3.47;;
30420;SDS011;17218;54.070;10.012;2024-02-26T02:22:26;6.40;;;3.33;;
30420;SDS011;17218;54.070;10.012;2024-02-26T02:24:53;6.33;;;2.73;;
30420;SDS011;17218;54.070;10.012;2024-02-26T02:27:19;4.27;;;3.30;;
30420;SDS011;17218;54.070;10.012;2024-02-26T02:29:46;5.53;;;3.50;;
30420;SDS011;17218;54.070;10.012;2024-02-26T02:32:14;4.57;;;3.23;;
30420;SDS011;17218;54.070;10.012;2024-02-26T02:34:42;4.13;;;3.00;;
30420;SDS011;17218;54.070;10.012;2024-02-26T02:37:08;6.67;;;3.13;;
30420;SDS011;17218;54.070;10.012;2024-02-26T02:39:36;4.47;;;3.67;;
30420;SDS011;17218;54.070;10.012;2024-02-26T02:42:03;6.50;;;3.47;;
30420;SDS011;17218;54.070;10.012;2024-02-26T02:44:30;8.33;;;4.13;;
30420;SDS011;17218;54.070;10.012;2024-02-26T02:46:56;6.77;;;4.10;;
30420;SDS011;17218;54.070;10.012;2024-02-26T02:49:23;7.53;;;4.47;;
30420;SDS011;17218;54.070;10.012;2024-02-26T02:51:49;6.53;;;4.00;;
30420;SDS011;17218;54.070;10.012;2024-02-26T02:54:16;7.00;;;4.47;;
30420;SDS011;17218;54.070;10.012;2024-02-26T02:56:44;7.57;;;4.00;;
30420;SDS011;17218;54.070;10.012;2024-02-26T02:59:10;8.30;;;4.53;;
30420;SDS011;17218;54.070;10.012;2024-02-26T03:01:37;5.57;;;3.90;;
30420;SDS011;17218;54.070;10.012;2024-02-26T03:04:03;6.87;;;4.23;;
30420;SDS011;17218;54.070;10.012;2024-02-26T03:06:29;7.00;;;4.17;;
30420;SDS011;17218;54.070;10.012;2024-02-26T03:08:56;7.30;;;4.07;;
30420;SDS011;17218;54.070;10.012;2024-02-26T03:11:22;4.97;;;3.93;;
30420;SDS011;17218;54.070;10.012;2024-02-26T03:13:52;7.07;;;3.73;;
30420;SDS011;17218;54.070;10.012;2024-02-26T03:16:19;6.77;;;4.27;;
30420;SDS011;17218;54.070;10.012;2024-02-26T03:18:45;7.17;;;4.10;;
30420;SDS011;17218;54.070;10.012;2024-02-26T03:21:12;7.23;;;4.27;;
30420;SDS011;17218;54.070;10.012;2024-02-26T03:23:38;5.30;;;3.40;;
30420;SDS011;17218;54.070;10.012;2024-02-26T03:26:05;6.77;;;3.97;;
30420;SDS011;17218;54.070;10.012;2024-02-26T03:28:31;5.90;;;4.20;;
30420;SDS011;17218;54.070;10.012;2024-02-26T03:30:59;5.50;;;3.80;;
30420;SDS011;17218;54.070;10.012;2024-02-26T03:33:27;6.87;;;4.63;;
30420;SDS011;17218;54.070;10.012;2024-02-26T03:35:53;5.77;;;3.63;;
30420;SDS011;17218;54.070;10.012;2024-02-26T03:38:20;4.73;;;3.50;;
30420;SDS011;17218;54.070;10.012;2024-02-26T03:40:46;5.57;;;3.60;;
30420;SDS011;17218;54.070;10.012;2024-02-26T03:43:13;5.47;;;3.63;;
30420;SDS011;17218;54.070;10.012;2024-02-26T03:45:40;5.63;;;3.97;;
30420;SDS011;17218;54.070;10.012;2024-02-26T03:48:08;5.03;;;3.73;;
30420;SDS011;17218;54.070;10.012;2024-02-26T03:50:34;7.63;;;4.37;;
30420;SDS011;17218;54.070;10.012;2024-02-26T03:53:01;7.50;;;4.10;;
30420;SDS011;17218;54.070;10.012;2024-02-26T03:55:27;7.00;;;4.47;;
30420;SDS011;17218;54.070;10.012;2024-02-26T03:57:54;6.23;;;4.43;;
30420;SDS011;17218;54.070;10.012;2024-02-26T04:00:20;7.20;;;4.43;;
30420;SDS011;17218;54.070;10.012;2024-02-26T04:02:47;5.00;;;3.17;;
30420;SDS011;17218;54.070;10.012;2024-02-26T04:05:15;7.67;;;4.17;;
30420;SDS011;17218;54.070;10.012;2024-02-26T04:07:41;5.93;;;3.80;;
30420;SDS011;17218;54.070;10.012;2024-02-26T04:10:09;6.03;;;3.97;;
30420;SDS011;17218;54.070;10.012;2024-02-26T04:12:37;5.77;;;3.50;;
30420;SDS011;17218;54.070;10.012;2024-02-26T04:15:05;6.47;;;3.93;;
30420;SDS011;17218;54.070;10.012;2024-02-26T04:17:33;6.87;;;4.10;;
30420;SDS011;17218;54.070;10.012;2024-02-26T04:19:59;5.23;;;3.63;;
30420;SDS011;17218;54.070;10.012;2024-02-26T04:22:27;4.83;;;3.43;;
30420;SDS011;17218;54.070;10.012;2024-02-26T04:24:53;5.10;;;4.10;;
30420;SDS011;17218;54.070;10.012;2024-02-26T04:27:20;5.53;;;4.07;;
30420;SDS011;17218;54.070;10.012;2024-02-26T04:29:46;6.77;;;4.53;;
30420;SDS011;17218;54.070;10.012;2024-02-26T04:32:13;5.70;;;3.70;;
30420;SDS011;17218;54.070;10.012;2024-02-26T04:34:39;5.87;;;3.83;;
30420;SDS011;17218;54.070;10.012;2024-02-26T04:37:07;5.97;;;4.03;;
30420;SDS011;17218;54.070;10.012;2024-02-26T04:39:34;7.07;;;4.40;;
30420;SDS011;17218;54.070;10.012;2024-02-26T04:42:01;6.53;;;3.93;;
30420;SDS011;17218;54.070;10.012;2024-02-26T04:44:28;6.50;;;4.10;;
30420;SDS011;17218;54.070;10.012;2024-02-26T04:46:55;6.93;;;4.00;;
30420;SDS011;17218;54.070;10.012;2024-02-26T04:49:21;6.77;;;4.40;;
30420;SDS011;17218;54.070;10.012;2024-02-26T04:51:48;6.70;;;4.23;;
30420;SDS011;17218;54.070;10.012;2024-02-26T04:54:14;6.33;;;3.67;;
30420;SDS011;17218;54.070;10.012;2024-02-26T04:56:43;5.37;;;3.47;;
30420;SDS011;17218;54.070;10.012;2024-02-26T04:59:10;5.23;;;3.93;;
30420;SDS011;17218;54.070;10.012;2024-02-26T05:01:36;6.97;;;4.83;;
30420;SDS011;17218;54.070;10.012;2024-02-26T05:04:03;6.17;;;4.07;;
30420;SDS011;17218;54.070;10.012;2024-02-26T05:06:29;6.37;;;4.60;;
30420;SDS011;17218;54.070;10.012;2024-02-26T05:08:56;7.77;;;4.03;;
30420;SDS011;17218;54.070;10.012;2024-02-26T05:11:22;5.60;;;3.73;;
30420;SDS011;17218;54.070;10.012;2024-02-26T05:13:50;5.83;;;4.03;;
30420;SDS011;17218;54.070;10.012;2024-02-26T05:16:17;8.10;;;4.60;;
30420;SDS011;17218;54.070;10.012;2024-02-26T05:18:45;10.17;;;5.00;;
30420;SDS011;17218;54.070;10.012;2024-02-26T05:21:11;6.27;;;4.73;;
30420;SDS011;17218;54.070;10.012;2024-02-26T05:23:38;8.57;;;4.83;;
30420;SDS011;17218;54.070;10.012;2024-02-26T05:26:04;6.40;;;4.97;;
30420;SDS011;17218;54.070;10.012;2024-02-26T05:28:31;5.33;;;4.73;;
30420;SDS011;17218;54.070;10.012;2024-02-26T05:30:59;7.77;;;5.07;;
30420;SDS011;17218;54.070;10.012;2024-02-26T05:33:25;7.50;;;4.30;;
30420;SDS011;17218;54.070;10.012;2024-02-26T05:35:52;8.37;;;4.70;;
30420;SDS011;17218;54.070;10.012;2024-02-26T05:38:18;7.37;;;4.80;;
30420;SDS011;17218;54.070;10.012;2024-02-26T05:40:45;8.13;;;5.10;;
30420;SDS011;17218;54.070;10.012;2024-02-26T05:43:12;7.83;;;5.17;;
30420;SDS011;17218;54.070;10.012;2024-02-26T05:45:40;6.80;;;4.53;;
30420;SDS011;17218;54.070;10.012;2024-02-26T05:48:08;9.07;;;5.20;;
30420;SDS011;17218;54.070;10.012;2024-02-26T05:50:34;9.90;;;5.00;;
30420;SDS011;17218;54.070;10.012;2024-02-26T05:53:01;6.53;;;4.10;;
30420;SDS011;17218;54.070;10.012;2024-02-26T05:55:28;7.23;;;4.50;;
30420;SDS011;17218;54.070;10.012;2024-02-26T05:57:54;6.47;;;4.57;;
30420;SDS011;17218;54.070;10.012;2024-02-26T06:00:21;7.43;;;4.47;;
30420;SDS011;17218;54.070;10.012;2024-02-26T06:02:48;7.50;;;4.60;;
30420;SDS011;17218;54.070;10.012;2024-02-26T06:05:15;8.93;;;5.17;;
30420;SDS011;17218;54.070;10.012;2024-02-26T06:07:42;7.93;;;4.43;;
30420;SDS011;17218;54.070;10.012;2024-02-26T06:10:09;5.43;;;3.73;;
30420;SDS011;17218;54.070;10.012;2024-02-26T06:12:36;8.57;;;4.77;;
30420;SDS011;17218;54.070;10.012;2024-02-26T06:15:02;8.33;;;4.30;;
30420;SDS011;17218;54.070;10.012;2024-02-26T06:17:29;11.67;;;5.03;;
30420;SDS011;17218;54.070;10.012;2024-02-26T06:19:56;11.17;;;4.87;;
30420;SDS011;17218;54.070;10.012;2024-02-26T06:22:25;6.37;;;4.30;;
30420;SDS011;17218;54.070;10.012;2024-02-26T06:24:52;7.87;;;4.97;;
30420;SDS011;17218;54.070;10.012;2024-02-26T06:27:18;6.80;;;4.53;;
30420;SDS011;17218;54.070;10.012;2024-02-26T06:29:46;7.13;;;4.30;;
30420;SDS011;17218;54.070;10.012;2024-02-26T06:32:13;11.57;;;4.73;;
30420;SDS011;17218;54.070;10.012;2024-02-26T06:34:39;7.10;;;4.77;;
30420;SDS011;17218;54.070;10.012;2024-02-26T06:37:07;7.77;;;4.73;;
30420;SDS011;17218;54.070;10.012;2024-02-26T06:39:35;6.23;;;4.53;;
30420;SDS011;17218;54.070;10.012;2024-02-26T06:42:01;6.87;;;4.23;;
30420;SDS011;17218;54.070;10.012;2024-02-26T06:44:28;7.77;;;4.93;;
30420;SDS011;17218;54.070;10.012;2024-02-26T06:46:57;7.83;;;5.00;;
30420;SDS011;17218;54.070;10.012;2024-02-26T06:49:23;8.23;;;4.90;;
30420;SDS011;17218;54.070;10.012;2024-02-26T06:51:50;9.40;;;5.00;;
30420;SDS011;17218;54.070;10.012;2024-02-26T06:54:16;8.10;;;4.60;;
30420;SDS011;17218;54.070;10.012;2024-02-26T06:56:44;8.60;;;5.13;;
30420;SDS011;17218;54.070;10.012;2024-02-26T06:59:10;8.40;;;4.37;;
30420;SDS011;17218;54.070;10.012;2024-02-26T07:01:37;8.63;;;5.43;;
30420;SDS011;17218;54.070;10.012;2024-02-26T07:04:05;7.23;;;4.33;;
30420;SDS011;17218;54.070;10.012;2024-02-26T07:06:32;11.23;;;5.40;;
30420;SDS011;17218;54.070;10.012;2024-02-26T07:08:58;7.70;;;4.63;;
30420;SDS011;17218;54.070;10.012;2024-02-26T07:11:25;8.60;;;5.10;;
30420;SDS011;17218;54.070;10.012;2024-02-26T07:13:53;7.53;;;5.43;;
30420;SDS011;17218;54.070;10.012;2024-02-26T07:16:19;10.70;;;6.27;;
30420;SDS011;17218;54.070;10.012;2024-02-26T07:18:46;7.87;;;4.73;;
30420;SDS011;17218;54.070;10.012;2024-02-26T07:21:12;10.37;;;6.23;;
30420;SDS011;17218;54.070;10.012;2024-02-26T07:23:39;8.10;;;5.03;;
30420;SDS011;17218;54.070;10.012;2024-02-26T07:26:05;10.03;;;5.47;;
30420;SDS011;17218;54.070;10.012;2024-02-26T07:28:33;8.10;;;4.90;;
30420;SDS011;17218;54.070;10.012;2024-02-26T07:31:01;6.57;;;4.57;;
30420;SDS011;17218;54.070;10.012;2024-02-26T07:33:28;8.50;;;5.47;;
30420;SDS011;17218;54.070;10.012;2024-02-26T07:35:54;7.53;;;4.53;;
30420;SDS011;17218;54.070;10.012;2024-02-26T07:38:21;8.73;;;5.30;;
30420;SDS011;17218;54.070;10.012;2024-02-26T07:40:49;7.90;;;5.40;;
30420;SDS011;17218;54.070;10.012;2024-02-26T07:43:15;7.93;;;5.17;;
30420;SDS011;17218;54.070;10.012;2024-02-26T07:45:42;8.47;;;5.53;;
30420;SDS011;17218;54.070;10.012;2024-02-26T07:48:09;8.07;;;4.80;;
30420;SDS011;17218;54.070;10.012;2024-02-26T07:50:37;7.47;;;4.90;;
30420;SDS011;17218;54.070;10.012;2024-02-26T07:53:04;8.13;;;5.33;;
30420;SDS011;17218;54.070;10.012;2024-02-26T07:55:30;10.53;;;5.40;;
30420;SDS011;17218;54.070;10.012;2024-02-26T07:57:56;8.70;;;5.13;;
30420;SDS011;17218;54.070;10.012;2024-02-26T08:00:23;10.43;;;6.43;;
30420;SDS011;17218;54.070;10.012;2024-02-26T08:02:49;8.83;;;5.47;;
30420;SDS011;17218;54.070;10.012;2024-02-26T08:05:17;9.13;;;5.20;;
30420;SDS011;17218;54.070;10.012;2024-02-26T08:07:44;8.37;;;5.37;;
30420;SDS011;17218;54.070;10.012;2024-02-26T08:10:11;8.70;;;5.70;;
30420;SDS011;17218;54.070;10.012;2024-02-26T08:12:37;10.87;;;5.87;;
30420;SDS011;17218;54.070;10.012;2024-02-26T08:15:04;11.83;;;6.37;;
30420;SDS011;17218;54.070;10.012;2024-02-26T08:17:31;13.43;;;6.47;;
30420;SDS011;17218;54.070;10.012;2024-02-26T08:19:58;10.60;;;5.40;;
30420;SDS011;17218;54.070;10.012;2024-02-26T08:22:26;11.60;;;5.87;;
30420;SDS011;17218;54.070;10.012;2024-02-26T08:24:53;8.23;;;5.33;;
30420;SDS011;17218;54.070;10.012;2024-02-26T08:27:19;9.93;;;5.90;;
30420;SDS011;17218;54.070;10.012;2024-02-26T08:29:46;8.83;;;5.50;;
30420;SDS011;17218;54.070;10.012;2024-02-26T08:32:12;9.80;;;5.80;;
30420;SDS011;17218;54.070;10.012;2024-02-26T08:34:39;8.77;;;5.67;;
30420;SDS011;17218;54.070;10.012;2024-02-26T08:37:05;10.67;;;5.70;;
30420;SDS011;17218;54.070;10.012;2024-02-26T08:39:33;11.43;;;6.90;;
30420;SDS011;17218;54.070;10.012;2024-02-26T08:42:00;12.17;;;7.40;;
30420;SDS011;17218;54.070;10.012;2024-02-26T08:44:26;12.67;;;6.97;;
30420;SDS011;17218;54.070;10.012;2024-02-26T08:46:53;12.83;;;6.73;;
30420;SDS011;17218;54.070;10.012;2024-02-26T08:49:19;14.83;;;7.83;;
30420;SDS011;17218;54.070;10.012;2024-02-26T08:51:48;13.13;;;6.90;;
30420;SDS011;17218;54.070;10.012;2024-02-26T08:54:14;13.53;;;7.47;;
30420;SDS011;17218;54.070;10.012;2024-02-26T08:56:42;12.87;;;6.43;;
30420;SDS011;17218;54.070;10.012;2024-02-26T08:59:09;11.13;;;6.90;;
30420;SDS011;17218;54.070;10.012;2024-02-26T09:01:35;9.37;;;5.63;;
30420;SDS011;17218;54.070;10.012;2024-02-26T09:04:01;10.83;;;6.53;;
30420;SDS011;17218;54.070;10.012;2024-02-26T09:06:28;9.83;;;6.50;;
30420;SDS011;17218;54.070;10.012;2024-02-26T09:08:55;10.97;;;5.93;;
30420;SDS011;17218;54.070;10.012;2024-02-26T09:11:21;8.73;;;4.77;;
30420;SDS011;17218;54.070;10.012;2024-02-26T09:13:49;8.47;;;5.03;;
30420;SDS011;17218;54.070;10.012;2024-02-26T09:16:16;6.90;;;4.60;;
30420;SDS011;17218;54.070;10.012;2024-02-26T09:18:42;6.53;;;4.20;;
30420;SDS011;17218;54.070;10.012;2024-02-26T09:21:09;7.07;;;4.40;;
30420;SDS011;17218;54.070;10.012;2024-02-26T09:23:35;7.37;;;4.43;;
30420;SDS011;17218;54.070;10.012;2024-02-26T09:26:02;6.50;;;4.63;;
30420;SDS011;17218;54.070;10.012;2024-02-26T09:28:28;6.10;;;3.80;;
30420;SDS011;17218;54.070;10.012;2024-02-26T09:31:01;6.13;;;4.30;;
30420;SDS011;17218;54.070;10.012;2024-02-26T09:33:27;5.57;;;3.97;;
30420;SDS011;17218;54.070;10.012;2024-02-26T09:35:54;6.27;;;4.10;;
30420;SDS011;17218;54.070;10.012;2024-02-26T09:38:20;5.43;;;4.00;;
30420;SDS011;17218;54.070;10.012;2024-02-26T09:40:47;4.90;;;3.77;;
30420;SDS011;17218;54.070;10.012;2024-02-26T09:43:14;6.53;;;4.00;;
30420;SDS011;17218;54.070;10.012;2024-02-26T09:45:41;5.27;;;3.50;;
30420;SDS011;17218;54.070;10.012;2024-02-26T09:48:09;5.50;;;3.80;;
30420;SDS011;17218;54.070;10.012;2024-02-26T09:50:39;6.40;;;4.00;;
30420;SDS011;17218;54.070;10.012;2024-02-26T09:53:08;5.17;;;3.50;;
30420;SDS011;17218;54.070;10.012;2024-02-26T09:55:35;5.67;;;3.33;;
30420;SDS011;17218;54.070;10.012;2024-02-26T09:58:01;4.90;;;3.40;;
30420;SDS011;17218;54.070;10.012;2024-02-26T10:00:31;5.17;;;3.43;;
30420;SDS011;17218;54.070;10.012;2024-02-26T10:02:58;5.43;;;3.80;;
30420;SDS011;17218;54.070;10.012;2024-02-26T10:05:31;4.03;;;2.97;;
30420;SDS011;17218;54.070;10.012;2024-02-26T10:07:58;5.73;;;3.53;;
30420;SDS011;17218;54.070;10.012;2024-02-26T10:10:26;5.60;;;3.43;;
30420;SDS011;17218;54.070;10.012;2024-02-26T10:12:55;3.70;;;2.90;;
30420;SDS011;17218;54.070;10.012;2024-02-26T10:15:21;5.13;;;3.53;;
30420;SDS011;17218;54.070;10.012;2024-02-26T10:17:47;4.70;;;3.57;;
30420;SDS011;17218;54.070;10.012;2024-02-26T10:20:14;5.27;;;3.33;;
30420;SDS011;17218;54.070;10.012;2024-02-26T10:22:44;5.47;;;3.77;;
30420;SDS011;17218;54.070;10.012;2024-02-26T10:25:10;5.37;;;3.63;;
30420;SDS011;17218;54.070;10.012;2024-02-26T10:27:37;5.67;;;4.27;;
30420;SDS011;17218;54.070;10.012;2024-02-26T10:30:04;7.23;;;3.57;;
30420;SDS011;17218;54.070;10.012;2024-02-26T10:32:40;4.57;;;3.07;;
30420;SDS011;17218;54.070;10.012;2024-02-26T10:35:07;4.37;;;3.07;;
30420;SDS011;17218;54.070;10.012;2024-02-26T10:37:34;4.80;;;3.37;;
30420;SDS011;17218;54.070;10.012;2024-02-26T10:40:02;9.10;;;3.73;;
30420;SDS011;17218;54.070;10.012;2024-02-26T10:42:30;4.07;;;3.27;;
30420;SDS011;17218;54.070;10.012;2024-02-26T10:44:57;4.77;;;2.90;;
30420;SDS011;17218;54.070;10.012;2024-02-26T10:47:24;4.50;;;3.43;;
30420;SDS011;17218;54.070;10.012;2024-02-26T10:49:50;4.77;;;3.33;;
30420;SDS011;17218;54.070;10.012;2024-02-26T10:52:18;6.30;;;3.83;;
30420;SDS011;17218;54.070;10.012;2024-02-26T10:54:46;4.40;;;3.07;;
30420;SDS011;17218;54.070;10.012;2024-02-26T10:57:15;4.53;;;3.57;;
30420;SDS011;17218;54.070;10.012;2024-02-26T10:59:43;4.43;;;3.30;;
30420;SDS011;17218;54.070;10.012;2024-02-26T11:02:10;4.43;;;3.60;;
30420;SDS011;17218;54.070;10.012;2024-02-26T11:04:39;5.23;;;3.73;;
30420;SDS011;17218;54.070;10.012;2024-02-26T11:07:06;6.20;;;4.17;;
30420;SDS011;17218;54.070;10.012;2024-02-26T11:09:35;4.80;;;3.23;;
30420;SDS011;17218;54.070;10.012;2024-02-26T11:12:02;4.87;;;3.67;;
30420;SDS011;17218;54.070;10.012;2024-02-26T11:14:36;6.57;;;3.60;;
30420;SDS011;17218;54.070;10.012;2024-02-26T11:17:04;6.80;;;3.47;;
30420;SDS011;17218;54.070;10.012;2024-02-26T11:19:34;5.13;;;3.47;;
30420;SDS011;17218;54.070;10.012;2024-02-26T11:22:02;4.05;;;3.13;;
30420;SDS011;17218;54.070;10.012;2024-02-26T11:24:28;4.97;;;3.25;;
30420;SDS011;17218;54.070;10.012;2024-02-26T11:26:57;4.78;;;3.55;;
30420;SDS011;17218;54.070;10.012;2024-02-26T11:29:27;3.78;;;2.45;;
30420;SDS011;17218;54.070;10.012;2024-02-26T11:31:57;4.40;;;3.47;;
30420;SDS011;17218;54.070;10.012;2024-02-26T11:37:30;5.00;;;3.45;;
30420;SDS011;17218;54.070;10.012;2024-02-26T11:39:56;4.40;;;3.10;;
30420;SDS011;17218;54.070;10.012;2024-02-26T11:42:25;5.07;;;3.17;;
30420;SDS011;17218;54.070;10.012;2024-02-26T11:44:52;4.63;;;3.65;;
30420;SDS011;17218;54.070;10.012;2024-02-26T11:47:21;4.25;;;3.25;;
30420;SDS011;17218;54.070;10.012;2024-02-26T11:49:48;4.60;;;3.33;;
30420;SDS011;17218;54.070;10.012;2024-02-26T11:52:15;5.70;;;3.95;;
30420;SDS011;17218;54.070;10.012;2024-02-26T11:54:45;4.55;;;3.03;;
30420;SDS011;17218;54.070;10.012;2024-02-26T11:57:23;5.18;;;3.40;;
30420;SDS011;17218;54.070;10.012;2024-02-26T11:59:50;4.97;;;3.50;;
30420;SDS011;17218;54.070;10.012;2024-02-26T12:05:11;4.55;;;3.42;;
30420;SDS011;17218;54.070;10.012;2024-02-26T12:07:39;4.68;;;3.55;;
30420;SDS011;17218;54.070;10.012;2024-02-26T12:10:17;4.72;;;3.55;;
30420;SDS011;17218;54.070;10.012;2024-02-26T12:12:52;5.53;;;3.47;;
30420;SDS011;17218;54.070;10.012;2024-02-26T12:15:19;6.97;;;3.28;;
30420;SDS011;17218;54.070;10.012;2024-02-26T12:17:50;5.05;;;3.97;;
30420;SDS011;17218;54.070;10.012;2024-02-26T12:20:18;6.32;;;3.83;;
30420;SDS011;17218;54.070;10.012;2024-02-26T12:22:45;5.03;;;3.55;;
30420;SDS011;17218;54.070;10.012;2024-02-26T12:25:13;5.30;;;3.83;;
30420;SDS011;17218;54.070;10.012;2024-02-26T12:27:39;5.22;;;3.67;;
30420;SDS011;17218;54.070;10.012;2024-02-26T12:30:07;5.70;;;3.70;;
30420;SDS011;17218;54.070;10.012;2024-02-26T12:32:34;4.53;;;3.08;;
30420;SDS011;17218;54.070;10.012;2024-02-26T12:35:02;6.32;;;3.55;;
30420;SDS011;17218;54.070;10.012;2024-02-26T12:37:31;4.30;;;3.42;;
30420;SDS011;17218;54.070;10.012;2024-02-26T12:39:58;5.75;;;3.97;;
30420;SDS011;17218;54.070;10.012;2024-02-26T12:42:25;5.47;;;3.58;;
30420;SDS011;17218;54.070;10.012;2024-02-26T12:44:52;6.78;;;4.05;;
30420;SDS011;17218;54.070;10.012;2024-02-26T12:47:18;6.80;;;4.45;;
30420;SDS011;17218;54.070;10.012;2024-02-26T12:49:47;5.82;;;4.20;;
30420;SDS011;17218;54.070;10.012;2024-02-26T12:52:15;7.67;;;4.47;;
30420;SDS011;17218;54.070;10.012;2024-02-26T12:54:42;6.93;;;4.20;;
30420;SDS011;17218;54.070;10.012;2024-02-26T12:57:10;7.70;;;4.63;;
30420;SDS011;17218;54.070;10.012;2024-02-26T12:59:37;7.18;;;4.80;;
30420;SDS011;17218;54.070;10.012;2024-02-26T13:02:04;6.37;;;4.37;;
30420;SDS011;17218;54.070;10.012;2024-02-26T13:04:31;6.93;;;4.93;;
30420;SDS011;17218;54.070;10.012;2024-02-26T13:06:58;8.57;;;5.80;;
30420;SDS011;17218;54.070;10.012;2024-02-26T13:09:30;7.90;;;4.97;;
30420;SDS011;17218;54.070;10.012;2024-02-26T13:11:59;8.60;;;5.93;;
30420;SDS011;17218;54.070;10.012;2024-02-26T13:14:26;9.20;;;5.28;;
30420;SDS011;17218;54.070;10.012;2024-02-26T13:16:55;7.40;;;4.95;;
30420;SDS011;17218;54.070;10.012;2024-02-26T13:19:22;7.97;;;5.13;;
30420;SDS011;17218;54.070;10.012;2024-02-26T13:21:48;7.35;;;5.35;;
30420;SDS011;17218;54.070;10.012;2024-02-26T13:24:15;6.80;;;4.85;;
30420;SDS011;17218;54.070;10.012;2024-02-26T13:26:44;7.18;;;5.13;;
30420;SDS011;17218;54.070;10.012;2024-02-26T13:29:16;7.45;;;4.95;;
30420;SDS011;17218;54.070;10.012;2024-02-26T13:31:43;6.22;;;4.70;;
30420;SDS011;17218;54.070;10.012;2024-02-26T13:34:09;7.18;;;4.55;;
30420;SDS011;17218;54.070;10.012;2024-02-26T13:36:36;8.75;;;4.97;;
30420;SDS011;17218;54.070;10.012;2024-02-26T13:39:02;9.43;;;5.00;;
30420;SDS011;17218;54.070;10.012;2024-02-26T13:41:30;6.07;;;4.28;;
30420;SDS011;17218;54.070;10.012;2024-02-26T13:43:58;6.40;;;5.05;;
30420;SDS011;17218;54.070;10.012;2024-02-26T13:46:25;7.78;;;5.07;;
30420;SDS011;17218;54.070;10.012;2024-02-26T13:48:51;6.30;;;4.90;;
30420;SDS011;17218;54.070;10.012;2024-02-26T13:51:18;7.50;;;5.03;;
30420;SDS011;17218;54.070;10.012;2024-02-26T13:53:45;6.22;;;4.63;;
30420;SDS011;17218;54.070;10.012;2024-02-26T13:56:11;7.82;;;4.97;;
30420;SDS011;17218;54.070;10.012;2024-02-26T13:58:38;6.93;;;4.63;;
30420;SDS011;17218;54.070;10.012;2024-02-26T14:01:07;7.32;;;4.57;;
30420;SDS011;17218;54.070;10.012;2024-02-26T14:03:34;7.38;;;5.03;;
30420;SDS011;17218;54.070;10.012;2024-02-26T14:06:00;7.03;;;4.25;;
30420;SDS011;17218;54.070;10.012;2024-02-26T14:08:27;6.55;;;4.43;;
30420;SDS011;17218;54.070;10.012;2024-02-26T14:10:53;7.35;;;4.63;;
30420;SDS011;17218;54.070;10.012;2024-02-26T14:13:20;5.80;;;4.70;;
30420;SDS011;17218;54.070;10.012;2024-02-26T14:15:46;7.03;;;4.50;;
30420;SDS011;17218;54.070;10.012;2024-02-26T14:18:14;5.18;;;4.07;;
30420;SDS011;17218;54.070;10.012;2024-02-26T14:20:40;7.72;;;5.40;;
30420;SDS011;17218;54.070;10.012;2024-02-26T14:23:07;5.97;;;4.53;;
30420;SDS011;17218;54.070;10.012;2024-02-26T14:25:34;6.30;;;4.57;;
30420;SDS011;17218;54.070;10.012;2024-02-26T14:28:01;4.88;;;4.22;;
30420;SDS011;17218;54.070;10.012;2024-02-26T14:30:28;8.00;;;4.68;;
30420;SDS011;17218;54.070;10.012;2024-02-26T14:32:55;6.50;;;4.40;;
30420;SDS011;17218;54.070;10.012;2024-02-26T14:35:23;6.32;;;4.57;;
30420;SDS011;17218;54.070;10.012;2024-02-26T14:37:50;6.88;;;5.10;;